Capitol Logistics 443


KRFD
Chicago/Rockford International Airport
Rockford, Illinois, US
KTPA
Tampa International Airport
Tampa, Florida, US

Activity Log

Date Flight Route Aircraft Duration
07/10/2019 CPX443 AHMED PNT PXV J73 WYATT HEVVN FOOXX5 B738 2h 50m
07/01/2019 CPX443 AHMED PNT PXV J73 WYATT HEVVN FOOXX5 B738 2h 29m
06/27/2019 CPX443 AHMED PNT PXV J73 WYATT HEVVN FOOXX5 B738 2h 24m

Route Details

Aircraft Information
Primary: Boeing 737-800BCF
Backup: Not Available
Route Data
Distance: 913nm
Sched. Duration: 2h 18m
Avg. Duration: 2h 35m (+17m)
Times Flown: 3
Recm'd Route: AHMED PNT PXV J73 WYATT HEVVN FOOXX5
Planned Altitude: 33,000ft
Origin Wx: KRFD 061154Z 00000KT 10SM FEW250 23/19 A3002 RMK AO2 SLP159 T02330194 10239 20206 53009
Dest. Wx: KTPA 061153Z 16005KT 10SM SCT027CB SCT300 27/23 A3000 RMK AO2 SLP159 CB S MOV NE TCU N 70029 T02670228 10267 20250 51014
Notes:

Financial History
Total Freight: 96,096lbs
Average Load: 32,032lbs/flt
Fuel Used: 39,789lbs
Avg. Fuel Used: 13,263lbs/flt
Fuel Expense: $28,250
Avg. Fuel Expense: $9,417
Avg. Fuel Cost: $0.71/lbs
Total Gross Income: $123,964
Pilot Pay: $447
Total Expenses: $13,544
Total Revenue: $80,716
Average Revenue: $41,321.28